sensor_id;sensor_type;location;lat;lon;timestamp;P1;durP1;ratioP1;P2;durP2;ratioP2
3547;SDS011;1788;49.400;11.092;2023-11-19T00:02:14;3.73;;;3.17;;
3547;SDS011;1788;49.400;11.092;2023-11-19T00:04:40;3.10;;;2.83;;
3547;SDS011;1788;49.400;11.092;2023-11-19T00:07:08;3.27;;;2.80;;
3547;SDS011;1788;49.400;11.092;2023-11-19T00:09:36;2.83;;;2.63;;
3547;SDS011;1788;49.400;11.092;2023-11-19T00:14:30;3.43;;;2.67;;
3547;SDS011;1788;49.400;11.092;2023-11-19T00:16:56;2.83;;;2.63;;
3547;SDS011;1788;49.400;11.092;2023-11-19T00:19:24;3.13;;;2.93;;
3547;SDS011;1788;49.400;11.092;2023-11-19T00:21:50;2.93;;;2.70;;
3547;SDS011;1788;49.400;11.092;2023-11-19T00:24:17;2.93;;;2.73;;
3547;SDS011;1788;49.400;11.092;2023-11-19T00:26:44;3.90;;;2.97;;
3547;SDS011;1788;49.400;11.092;2023-11-19T00:29:10;3.30;;;3.10;;
3547;SDS011;1788;49.400;11.092;2023-11-19T00:31:38;4.60;;;3.60;;
3547;SDS011;1788;49.400;11.092;2023-11-19T00:34:04;3.53;;;2.97;;
3547;SDS011;1788;49.400;11.092;2023-11-19T00:36:31;3.87;;;3.53;;
3547;SDS011;1788;49.400;11.092;2023-11-19T00:38:58;3.47;;;3.27;;
3547;SDS011;1788;49.400;11.092;2023-11-19T00:41:24;4.60;;;3.27;;
3547;SDS011;1788;49.400;11.092;2023-11-19T00:43:51;4.80;;;3.60;;
3547;SDS011;1788;49.400;11.092;2023-11-19T00:46:17;3.30;;;3.13;;
3547;SDS011;1788;49.400;11.092;2023-11-19T00:48:45;4.17;;;3.30;;
3547;SDS011;1788;49.400;11.092;2023-11-19T00:51:11;4.47;;;3.00;;
3547;SDS011;1788;49.400;11.092;2023-11-19T00:53:38;3.40;;;3.17;;
3547;SDS011;1788;49.400;11.092;2023-11-19T00:56:05;4.87;;;3.40;;
3547;SDS011;1788;49.400;11.092;2023-11-19T00:58:31;4.83;;;3.40;;
3547;SDS011;1788;49.400;11.092;2023-11-19T01:00:58;3.43;;;3.27;;
3547;SDS011;1788;49.400;11.092;2023-11-19T01:03:25;3.00;;;2.83;;
3547;SDS011;1788;49.400;11.092;2023-11-19T01:05:52;3.57;;;3.07;;
3547;SDS011;1788;49.400;11.092;2023-11-19T01:08:18;3.17;;;2.97;;
3547;SDS011;1788;49.400;11.092;2023-11-19T01:10:46;3.23;;;2.93;;
3547;SDS011;1788;49.400;11.092;2023-11-19T01:13:13;3.23;;;3.03;;
3547;SDS011;1788;49.400;11.092;2023-11-19T01:15:39;5.07;;;3.63;;
3547;SDS011;1788;49.400;11.092;2023-11-19T01:18:07;2.93;;;2.73;;
3547;SDS011;1788;49.400;11.092;2023-11-19T01:20:33;3.73;;;2.70;;
3547;SDS011;1788;49.400;11.092;2023-11-19T01:23:00;3.10;;;2.90;;
3547;SDS011;1788;49.400;11.092;2023-11-19T01:25:26;3.13;;;2.93;;
3547;SDS011;1788;49.400;11.092;2023-11-19T01:27:53;3.90;;;3.33;;
3547;SDS011;1788;49.400;11.092;2023-11-19T01:30:20;3.07;;;2.87;;
3547;SDS011;1788;49.400;11.092;2023-11-19T01:32:46;3.03;;;2.83;;
3547;SDS011;1788;49.400;11.092;2023-11-19T01:35:13;3.20;;;3.00;;
3547;SDS011;1788;49.400;11.092;2023-11-19T01:37:40;4.20;;;3.60;;
3547;SDS011;1788;49.400;11.092;2023-11-19T01:40:06;4.10;;;3.40;;
3547;SDS011;1788;49.400;11.092;2023-11-19T01:45:00;3.03;;;2.90;;
3547;SDS011;1788;49.400;11.092;2023-11-19T01:47:27;4.60;;;3.23;;
3547;SDS011;1788;49.400;11.092;2023-11-19T01:49:53;4.40;;;3.10;;
3547;SDS011;1788;49.400;11.092;2023-11-19T01:52:21;3.37;;;3.17;;
3547;SDS011;1788;49.400;11.092;2023-11-19T01:54:48;5.30;;;3.50;;
3547;SDS011;1788;49.400;11.092;2023-11-19T01:57:15;3.40;;;2.93;;
3547;SDS011;1788;49.400;11.092;2023-11-19T01:59:42;4.47;;;3.47;;
3547;SDS011;1788;49.400;11.092;2023-11-19T02:02:09;3.53;;;3.00;;
3547;SDS011;1788;49.400;11.092;2023-11-19T02:04:35;5.63;;;3.07;;
3547;SDS011;1788;49.400;11.092;2023-11-19T02:07:02;6.30;;;3.83;;
3547;SDS011;1788;49.400;11.092;2023-11-19T02:09:29;3.33;;;3.13;;
3547;SDS011;1788;49.400;11.092;2023-11-19T02:11:55;4.23;;;3.10;;
3547;SDS011;1788;49.400;11.092;2023-11-19T02:14:23;3.93;;;3.27;;
3547;SDS011;1788;49.400;11.092;2023-11-19T02:16:48;4.67;;;3.70;;
3547;SDS011;1788;49.400;11.092;2023-11-19T02:19:16;3.13;;;2.97;;
3547;SDS011;1788;49.400;11.092;2023-11-19T02:21:42;5.43;;;3.90;;
3547;SDS011;1788;49.400;11.092;2023-11-19T02:24:09;3.60;;;3.40;;
3547;SDS011;1788;49.400;11.092;2023-11-19T02:29:02;3.90;;;3.70;;
3547;SDS011;1788;49.400;11.092;2023-11-19T02:31:29;4.37;;;3.90;;
3547;SDS011;1788;49.400;11.092;2023-11-19T02:33:55;4.53;;;3.97;;
3547;SDS011;1788;49.400;11.092;2023-11-19T02:36:22;4.60;;;3.40;;
3547;SDS011;1788;49.400;11.092;2023-11-19T02:38:49;3.23;;;3.07;;
3547;SDS011;1788;49.400;11.092;2023-11-19T02:41:17;4.77;;;3.80;;
3547;SDS011;1788;49.400;11.092;2023-11-19T02:43:43;5.93;;;3.87;;
3547;SDS011;1788;49.400;11.092;2023-11-19T02:46:10;3.90;;;3.13;;
3547;SDS011;1788;49.400;11.092;2023-11-19T02:48:37;4.10;;;3.80;;
3547;SDS011;1788;49.400;11.092;2023-11-19T02:51:03;4.53;;;3.73;;
3547;SDS011;1788;49.400;11.092;2023-11-19T02:53:30;3.60;;;3.40;;
3547;SDS011;1788;49.400;11.092;2023-11-19T02:55:56;4.47;;;3.63;;
3547;SDS011;1788;49.400;11.092;2023-11-19T02:58:23;6.00;;;4.33;;
3547;SDS011;1788;49.400;11.092;2023-11-19T03:00:49;7.43;;;3.83;;
3547;SDS011;1788;49.400;11.092;2023-11-19T03:03:16;3.73;;;3.53;;
3547;SDS011;1788;49.400;11.092;2023-11-19T03:05:43;6.37;;;3.90;;
3547;SDS011;1788;49.400;11.092;2023-11-19T03:08:10;5.70;;;3.90;;
3547;SDS011;1788;49.400;11.092;2023-11-19T03:10:36;6.13;;;3.90;;
3547;SDS011;1788;49.400;11.092;2023-11-19T03:13:03;4.30;;;3.70;;
3547;SDS011;1788;49.400;11.092;2023-11-19T03:15:30;4.53;;;3.90;;
3547;SDS011;1788;49.400;11.092;2023-11-19T03:17:56;3.70;;;3.50;;
3547;SDS011;1788;49.400;11.092;2023-11-19T03:20:23;4.70;;;3.87;;
3547;SDS011;1788;49.400;11.092;2023-11-19T03:22:49;3.83;;;3.43;;
3547;SDS011;1788;49.400;11.092;2023-11-19T03:25:16;6.30;;;4.00;;
3547;SDS011;1788;49.400;11.092;2023-11-19T03:27:43;5.00;;;4.10;;
3547;SDS011;1788;49.400;11.092;2023-11-19T03:30:09;4.97;;;3.93;;
3547;SDS011;1788;49.400;11.092;2023-11-19T03:32:37;6.17;;;3.97;;
3547;SDS011;1788;49.400;11.092;2023-11-19T03:35:03;6.20;;;4.30;;
3547;SDS011;1788;49.400;11.092;2023-11-19T03:37:30;4.43;;;4.13;;
3547;SDS011;1788;49.400;11.092;2023-11-19T03:39:57;4.33;;;3.90;;
3547;SDS011;1788;49.400;11.092;2023-11-19T03:42:24;5.80;;;4.50;;
3547;SDS011;1788;49.400;11.092;2023-11-19T03:44:51;7.17;;;4.43;;
3547;SDS011;1788;49.400;11.092;2023-11-19T03:47:17;3.87;;;3.70;;
3547;SDS011;1788;49.400;11.092;2023-11-19T03:49:47;5.10;;;4.13;;
3547;SDS011;1788;49.400;11.092;2023-11-19T03:52:10;6.00;;;4.53;;
3547;SDS011;1788;49.400;11.092;2023-11-19T03:54:37;7.07;;;4.67;;
3547;SDS011;1788;49.400;11.092;2023-11-19T03:57:03;6.07;;;5.13;;
3547;SDS011;1788;49.400;11.092;2023-11-19T03:59:30;4.57;;;3.97;;
3547;SDS011;1788;49.400;11.092;2023-11-19T04:01:57;6.07;;;4.10;;
3547;SDS011;1788;49.400;11.092;2023-11-19T04:04:23;8.40;;;5.23;;
3547;SDS011;1788;49.400;11.092;2023-11-19T04:06:50;6.30;;;4.43;;
3547;SDS011;1788;49.400;11.092;2023-11-19T04:09:16;6.20;;;5.00;;
3547;SDS011;1788;49.400;11.092;2023-11-19T04:11:43;6.43;;;4.53;;
3547;SDS011;1788;49.400;11.092;2023-11-19T04:14:10;4.90;;;4.63;;
3547;SDS011;1788;49.400;11.092;2023-11-19T04:16:37;7.63;;;5.17;;
3547;SDS011;1788;49.400;11.092;2023-11-19T04:19:04;4.83;;;4.53;;
3547;SDS011;1788;49.400;11.092;2023-11-19T04:21:30;7.17;;;5.10;;
3547;SDS011;1788;49.400;11.092;2023-11-19T04:23:57;5.40;;;5.10;;
3547;SDS011;1788;49.400;11.092;2023-11-19T04:26:23;6.80;;;5.00;;
3547;SDS011;1788;49.400;11.092;2023-11-19T04:28:50;10.03;;;5.60;;
3547;SDS011;1788;49.400;11.092;2023-11-19T04:31:17;8.70;;;5.30;;
3547;SDS011;1788;49.400;11.092;2023-11-19T04:33:43;5.33;;;4.73;;
3547;SDS011;1788;49.400;11.092;2023-11-19T04:36:10;5.73;;;4.57;;
3547;SDS011;1788;49.400;11.092;2023-11-19T04:38:37;7.90;;;5.50;;
3547;SDS011;1788;49.400;11.092;2023-11-19T04:41:03;5.70;;;4.60;;
3547;SDS011;1788;49.400;11.092;2023-11-19T04:43:30;9.23;;;5.60;;
3547;SDS011;1788;49.400;11.092;2023-11-19T04:45:56;5.87;;;4.40;;
3547;SDS011;1788;49.400;11.092;2023-11-19T04:48:23;8.60;;;5.10;;
3547;SDS011;1788;49.400;11.092;2023-11-19T04:50:50;6.83;;;5.40;;
3547;SDS011;1788;49.400;11.092;2023-11-19T04:53:16;6.27;;;5.37;;
3547;SDS011;1788;49.400;11.092;2023-11-19T04:55:43;5.40;;;5.03;;
3547;SDS011;1788;49.400;11.092;2023-11-19T04:58:09;8.27;;;5.13;;
3547;SDS011;1788;49.400;11.092;2023-11-19T05:00:36;7.90;;;5.30;;
3547;SDS011;1788;49.400;11.092;2023-11-19T05:03:03;13.50;;;5.70;;
3547;SDS011;1788;49.400;11.092;2023-11-19T05:05:30;7.73;;;5.30;;
3547;SDS011;1788;49.400;11.092;2023-11-19T05:07:57;8.20;;;5.53;;
3547;SDS011;1788;49.400;11.092;2023-11-19T05:10:23;6.43;;;5.17;;
3547;SDS011;1788;49.400;11.092;2023-11-19T05:12:50;10.60;;;5.77;;
3547;SDS011;1788;49.400;11.092;2023-11-19T05:15:17;9.27;;;5.77;;
3547;SDS011;1788;49.400;11.092;2023-11-19T05:17:43;8.60;;;5.20;;
3547;SDS011;1788;49.400;11.092;2023-11-19T05:20:10;8.33;;;5.60;;
3547;SDS011;1788;49.400;11.092;2023-11-19T05:22:36;6.43;;;4.73;;
3547;SDS011;1788;49.400;11.092;2023-11-19T05:25:04;7.03;;;5.37;;
3547;SDS011;1788;49.400;11.092;2023-11-19T05:27:30;7.53;;;5.00;;
3547;SDS011;1788;49.400;11.092;2023-11-19T05:29:58;6.53;;;5.27;;
3547;SDS011;1788;49.400;11.092;2023-11-19T05:32:24;7.50;;;5.17;;
3547;SDS011;1788;49.400;11.092;2023-11-19T05:34:51;5.57;;;4.97;;
3547;SDS011;1788;49.400;11.092;2023-11-19T05:37:17;6.47;;;5.00;;
3547;SDS011;1788;49.400;11.092;2023-11-19T05:39:44;7.13;;;5.40;;
3547;SDS011;1788;49.400;11.092;2023-11-19T05:42:11;8.47;;;5.57;;
3547;SDS011;1788;49.400;11.092;2023-11-19T05:44:37;8.03;;;5.07;;
3547;SDS011;1788;49.400;11.092;2023-11-19T05:47:04;7.37;;;5.80;;
3547;SDS011;1788;49.400;11.092;2023-11-19T05:49:30;6.83;;;5.10;;
3547;SDS011;1788;49.400;11.092;2023-11-19T05:51:57;7.47;;;5.07;;
3547;SDS011;1788;49.400;11.092;2023-11-19T05:54:24;8.70;;;4.97;;
3547;SDS011;1788;49.400;11.092;2023-11-19T05:56:50;7.63;;;4.83;;
3547;SDS011;1788;49.400;11.092;2023-11-19T05:59:17;8.80;;;6.00;;
3547;SDS011;1788;49.400;11.092;2023-11-19T06:01:44;5.10;;;4.63;;
3547;SDS011;1788;49.400;11.092;2023-11-19T06:04:10;6.50;;;4.60;;
3547;SDS011;1788;49.400;11.092;2023-11-19T06:06:37;5.93;;;4.33;;
3547;SDS011;1788;49.400;11.092;2023-11-19T06:09:03;6.90;;;4.63;;
3547;SDS011;1788;49.400;11.092;2023-11-19T06:11:30;6.87;;;4.90;;
3547;SDS011;1788;49.400;11.092;2023-11-19T06:13:57;6.93;;;4.40;;
3547;SDS011;1788;49.400;11.092;2023-11-19T06:16:23;5.17;;;4.07;;
3547;SDS011;1788;49.400;11.092;2023-11-19T06:18:50;6.10;;;4.57;;
3547;SDS011;1788;49.400;11.092;2023-11-19T06:21:16;6.63;;;4.60;;
3547;SDS011;1788;49.400;11.092;2023-11-19T06:23:43;4.77;;;4.47;;
3547;SDS011;1788;49.400;11.092;2023-11-19T06:26:10;5.93;;;4.07;;
3547;SDS011;1788;49.400;11.092;2023-11-19T06:28:37;4.37;;;4.07;;
3547;SDS011;1788;49.400;11.092;2023-11-19T06:31:04;6.20;;;4.00;;
3547;SDS011;1788;49.400;11.092;2023-11-19T06:33:30;4.63;;;3.70;;
3547;SDS011;1788;49.400;11.092;2023-11-19T06:35:57;4.27;;;3.77;;
3547;SDS011;1788;49.400;11.092;2023-11-19T06:38:24;5.37;;;4.13;;
3547;SDS011;1788;49.400;11.092;2023-11-19T06:40:51;4.97;;;3.73;;
3547;SDS011;1788;49.400;11.092;2023-11-19T06:43:18;4.77;;;3.77;;
3547;SDS011;1788;49.400;11.092;2023-11-19T06:45:45;5.47;;;3.63;;
3547;SDS011;1788;49.400;11.092;2023-11-19T06:48:11;5.00;;;3.87;;
3547;SDS011;1788;49.400;11.092;2023-11-19T06:50:38;5.53;;;3.77;;
3547;SDS011;1788;49.400;11.092;2023-11-19T06:53:05;3.17;;;2.90;;
3547;SDS011;1788;49.400;11.092;2023-11-19T06:55:32;4.63;;;2.80;;
3547;SDS011;1788;49.400;11.092;2023-11-19T06:57:59;4.33;;;3.47;;
3547;SDS011;1788;49.400;11.092;2023-11-19T07:00:26;4.27;;;3.30;;
3547;SDS011;1788;49.400;11.092;2023-11-19T07:02:53;4.90;;;4.10;;
3547;SDS011;1788;49.400;11.092;2023-11-19T07:05:19;3.73;;;3.53;;
3547;SDS011;1788;49.400;11.092;2023-11-19T07:07:46;3.87;;;3.67;;
3547;SDS011;1788;49.400;11.092;2023-11-19T07:10:12;3.43;;;3.13;;
3547;SDS011;1788;49.400;11.092;2023-11-19T07:12:39;3.80;;;3.20;;
3547;SDS011;1788;49.400;11.092;2023-11-19T07:15:06;3.27;;;2.60;;
3547;SDS011;1788;49.400;11.092;2023-11-19T07:17:32;2.97;;;2.57;;
3547;SDS011;1788;49.400;11.092;2023-11-19T07:19:59;3.57;;;2.67;;
3547;SDS011;1788;49.400;11.092;2023-11-19T07:22:26;4.53;;;3.93;;
3547;SDS011;1788;49.400;11.092;2023-11-19T07:24:53;3.67;;;3.47;;
3547;SDS011;1788;49.400;11.092;2023-11-19T07:27:20;3.30;;;3.10;;
3547;SDS011;1788;49.400;11.092;2023-11-19T07:29:46;3.37;;;2.87;;
3547;SDS011;1788;49.400;11.092;2023-11-19T07:32:13;3.23;;;3.03;;
3547;SDS011;1788;49.400;11.092;2023-11-19T07:34:40;2.20;;;2.00;;
3547;SDS011;1788;49.400;11.092;2023-11-19T07:37:07;3.63;;;2.37;;
3547;SDS011;1788;49.400;11.092;2023-11-19T07:39:34;2.03;;;1.90;;
3547;SDS011;1788;49.400;11.092;2023-11-19T07:42:01;2.37;;;2.17;;
3547;SDS011;1788;49.400;11.092;2023-11-19T07:44:28;3.37;;;2.47;;
3547;SDS011;1788;49.400;11.092;2023-11-19T07:46:55;3.03;;;2.23;;
3547;SDS011;1788;49.400;11.092;2023-11-19T07:49:21;1.80;;;1.70;;
3547;SDS011;1788;49.400;11.092;2023-11-19T07:51:48;2.13;;;1.80;;
3547;SDS011;1788;49.400;11.092;2023-11-19T07:54:15;1.73;;;1.63;;
3547;SDS011;1788;49.400;11.092;2023-11-19T07:56:41;1.97;;;1.87;;
3547;SDS011;1788;49.400;11.092;2023-11-19T07:59:08;1.60;;;1.50;;
3547;SDS011;1788;49.400;11.092;2023-11-19T08:01:34;1.63;;;1.53;;
3547;SDS011;1788;49.400;11.092;2023-11-19T08:04:01;1.97;;;1.87;;
3547;SDS011;1788;49.400;11.092;2023-11-19T08:06:28;2.87;;;2.23;;
3547;SDS011;1788;49.400;11.092;2023-11-19T08:08:54;1.97;;;1.87;;
3547;SDS011;1788;49.400;11.092;2023-11-19T08:11:21;1.53;;;1.43;;
3547;SDS011;1788;49.400;11.092;2023-11-19T08:13:48;3.23;;;2.50;;
3547;SDS011;1788;49.400;11.092;2023-11-19T08:16:15;2.10;;;1.97;;
3547;SDS011;1788;49.400;11.092;2023-11-19T08:18:43;2.17;;;2.00;;
3547;SDS011;1788;49.400;11.092;2023-11-19T08:21:09;1.40;;;1.33;;
3547;SDS011;1788;49.400;11.092;2023-11-19T08:23:36;1.67;;;1.50;;
3547;SDS011;1788;49.400;11.092;2023-11-19T08:26:03;3.47;;;2.13;;
3547;SDS011;1788;49.400;11.092;2023-11-19T08:28:29;1.37;;;1.30;;
3547;SDS011;1788;49.400;11.092;2023-11-19T08:30:56;1.57;;;1.50;;
3547;SDS011;1788;49.400;11.092;2023-11-19T08:33:29;1.07;;;0.97;;
3547;SDS011;1788;49.400;11.092;2023-11-19T08:35:56;3.87;;;3.03;;
3547;SDS011;1788;49.400;11.092;2023-11-19T08:38:22;1.80;;;1.70;;
3547;SDS011;1788;49.400;11.092;2023-11-19T08:40:49;2.47;;;2.27;;
3547;SDS011;1788;49.400;11.092;2023-11-19T08:43:16;1.70;;;1.60;;
3547;SDS011;1788;49.400;11.092;2023-11-19T08:45:42;1.50;;;1.40;;
3547;SDS011;1788;49.400;11.092;2023-11-19T08:48:10;2.40;;;2.20;;
3547;SDS011;1788;49.400;11.092;2023-11-19T08:50:36;5.30;;;3.97;;
3547;SDS011;1788;49.400;11.092;2023-11-19T08:53:04;1.90;;;1.80;;
3547;SDS011;1788;49.400;11.092;2023-11-19T08:55:30;1.00;;;0.90;;
3547;SDS011;1788;49.400;11.092;2023-11-19T08:57:57;1.10;;;0.83;;
3547;SDS011;1788;49.400;11.092;2023-11-19T09:00:23;2.27;;;2.07;;
3547;SDS011;1788;49.400;11.092;2023-11-19T09:02:50;1.33;;;1.23;;
3547;SDS011;1788;49.400;11.092;2023-11-19T09:05:17;1.83;;;1.73;;
3547;SDS011;1788;49.400;11.092;2023-11-19T09:07:43;1.50;;;1.40;;
3547;SDS011;1788;49.400;11.092;2023-11-19T09:10:10;1.70;;;1.03;;
3547;SDS011;1788;49.400;11.092;2023-11-19T09:12:37;1.33;;;1.23;;
3547;SDS011;1788;49.400;11.092;2023-11-19T09:15:04;1.47;;;1.40;;
3547;SDS011;1788;49.400;11.092;2023-11-19T09:17:30;3.20;;;2.10;;
3547;SDS011;1788;49.400;11.092;2023-11-19T09:19:57;3.13;;;2.97;;
3547;SDS011;1788;49.400;11.092;2023-11-19T09:22:24;3.00;;;1.90;;
3547;SDS011;1788;49.400;11.092;2023-11-19T09:24:50;2.20;;;1.10;;
3547;SDS011;1788;49.400;11.092;2023-11-19T09:27:17;1.53;;;1.43;;
3547;SDS011;1788;49.400;11.092;2023-11-19T09:29:44;1.70;;;1.60;;
3547;SDS011;1788;49.400;11.092;2023-11-19T09:32:11;3.13;;;1.00;;
3547;SDS011;1788;49.400;11.092;2023-11-19T09:34:38;1.97;;;1.23;;
3547;SDS011;1788;49.400;11.092;2023-11-19T09:37:04;1.27;;;1.10;;
3547;SDS011;1788;49.400;11.092;2023-11-19T09:39:31;1.13;;;1.03;;
3547;SDS011;1788;49.400;11.092;2023-11-19T09:41:57;1.73;;;0.90;;
3547;SDS011;1788;49.400;11.092;2023-11-19T09:44:25;1.10;;;1.00;;
3547;SDS011;1788;49.400;11.092;2023-11-19T09:46:51;1.00;;;0.90;;
3547;SDS011;1788;49.400;11.092;2023-11-19T09:49:20;1.17;;;0.90;;
3547;SDS011;1788;49.400;11.092;2023-11-19T09:51:45;1.23;;;0.73;;
3547;SDS011;1788;49.400;11.092;2023-11-19T09:54:13;1.80;;;1.00;;
3547;SDS011;1788;49.400;11.092;2023-11-19T09:56:39;1.70;;;1.13;;
3547;SDS011;1788;49.400;11.092;2023-11-19T09:59:06;1.67;;;1.13;;
3547;SDS011;1788;49.400;11.092;2023-11-19T10:01:33;2.63;;;1.30;;
3547;SDS011;1788;49.400;11.092;2023-11-19T10:03:59;1.23;;;1.13;;
3547;SDS011;1788;49.400;11.092;2023-11-19T10:06:27;2.77;;;1.33;;
3547;SDS011;1788;49.400;11.092;2023-11-19T10:08:53;1.20;;;1.10;;
3547;SDS011;1788;49.400;11.092;2023-11-19T10:11:21;2.40;;;1.27;;
3547;SDS011;1788;49.400;11.092;2023-11-19T10:13:47;0.97;;;0.87;;
3547;SDS011;1788;49.400;11.092;2023-11-19T10:16:14;1.97;;;1.10;;
3547;SDS011;1788;49.400;11.092;2023-11-19T10:21:07;1.20;;;0.80;;
3547;SDS011;1788;49.400;11.092;2023-11-19T10:28:33;2.00;;;1.50;;
3547;SDS011;1788;49.400;11.092;2023-11-19T10:30:56;1.50;;;1.40;;
3547;SDS011;1788;49.400;11.092;2023-11-19T10:33:22;2.23;;;1.20;;
3547;SDS011;1788;49.400;11.092;2023-11-19T10:38:16;1.53;;;1.00;;
3547;SDS011;1788;49.400;11.092;2023-11-19T10:40:43;1.33;;;1.23;;
3547;SDS011;1788;49.400;11.092;2023-11-19T10:43:10;0.60;;;0.50;;
3547;SDS011;1788;49.400;11.092;2023-11-19T10:45:37;1.90;;;1.00;;
3547;SDS011;1788;49.400;11.092;2023-11-19T10:48:05;1.90;;;1.00;;
3547;SDS011;1788;49.400;11.092;2023-11-19T10:50:31;0.90;;;0.80;;
3547;SDS011;1788;49.400;11.092;2023-11-19T10:52:58;4.30;;;2.47;;
3547;SDS011;1788;49.400;11.092;2023-11-19T10:55:26;2.20;;;1.00;;
3547;SDS011;1788;49.400;11.092;2023-11-19T10:57:51;1.33;;;1.20;;
3547;SDS011;1788;49.400;11.092;2023-11-19T11:00:18;1.20;;;1.10;;
3547;SDS011;1788;49.400;11.092;2023-11-19T11:02:45;0.80;;;0.70;;
3547;SDS011;1788;49.400;11.092;2023-11-19T11:05:12;0.90;;;0.80;;
3547;SDS011;1788;49.400;11.092;2023-11-19T11:07:39;2.00;;;0.90;;
3547;SDS011;1788;49.400;11.092;2023-11-19T11:10:07;1.37;;;1.00;;
3547;SDS011;1788;49.400;11.092;2023-11-19T11:12:35;1.40;;;1.10;;
3547;SDS011;1788;49.400;11.092;2023-11-19T11:15:01;3.63;;;1.40;;
3547;SDS011;1788;49.400;11.092;2023-11-19T11:17:27;1.33;;;1.17;;
3547;SDS011;1788;49.400;11.092;2023-11-19T11:19:54;2.27;;;1.00;;
3547;SDS011;1788;49.400;11.092;2023-11-19T11:22:21;1.60;;;1.30;;
3547;SDS011;1788;49.400;11.092;2023-11-19T11:29:41;0.83;;;0.80;;
3547;SDS011;1788;49.400;11.092;2023-11-19T11:34:41;1.67;;;1.10;;
3547;SDS011;1788;49.400;11.092;2023-11-19T11:39:27;2.50;;;1.23;;
3547;SDS011;1788;49.400;11.092;2023-11-19T11:44:38;1.70;;;1.40;;
3547;SDS011;1788;49.400;11.092;2023-11-19T11:49:13;1.07;;;0.97;;
3547;SDS011;1788;49.400;11.092;2023-11-19T11:54:08;0.90;;;0.80;;
3547;SDS011;1788;49.400;11.092;2023-11-19T11:59:01;1.50;;;0.90;;
3547;SDS011;1788;49.400;11.092;2023-11-19T12:01:28;3.07;;;0.97;;
3547;SDS011;1788;49.400;11.092;2023-11-19T12:06:21;1.97;;;1.63;;
3547;SDS011;1788;49.400;11.092;2023-11-19T12:08:48;2.73;;;1.20;;
3547;SDS011;1788;49.400;11.092;2023-11-19T12:11:14;2.53;;;1.17;;
3547;SDS011;1788;49.400;11.092;2023-11-19T12:16:08;2.87;;;1.90;;
3547;SDS011;1788;49.400;11.092;2023-11-19T12:18:35;1.90;;;1.83;;
3547;SDS011;1788;49.400;11.092;2023-11-19T12:21:02;1.57;;;1.30;;
3547;SDS011;1788;49.400;11.092;2023-11-19T12:23:28;1.13;;;1.10;;
3547;SDS011;1788;49.400;11.092;2023-11-19T12:25:55;1.73;;;1.57;;
3547;SDS011;1788;49.400;11.092;2023-11-19T12:28:21;1.20;;;0.93;;
3547;SDS011;1788;49.400;11.092;2023-11-19T12:30:49;1.37;;;0.90;;
3547;SDS011;1788;49.400;11.092;2023-11-19T12:33:15;1.20;;;1.10;;
3547;SDS011;1788;49.400;11.092;2023-11-19T12:35:44;1.47;;;1.20;;
3547;SDS011;1788;49.400;11.092;2023-11-19T12:40:36;1.60;;;1.00;;
3547;SDS011;1788;49.400;11.092;2023-11-19T12:43:03;2.10;;;1.50;;
3547;SDS011;1788;49.400;11.092;2023-11-19T12:50:24;1.40;;;1.30;;
3547;SDS011;1788;49.400;11.092;2023-11-19T12:57:44;1.73;;;0.87;;
3547;SDS011;1788;49.400;11.092;2023-11-19T13:07:30;5.27;;;1.80;;
3547;SDS011;1788;49.400;11.092;2023-11-19T13:12:24;3.90;;;1.40;;
3547;SDS011;1788;49.400;11.092;2023-11-19T13:14:51;6.07;;;1.43;;
3547;SDS011;1788;49.400;11.092;2023-11-19T13:17:17;1.97;;;1.00;;
3547;SDS011;1788;49.400;11.092;2023-11-19T13:19:46;1.43;;;1.13;;
3547;SDS011;1788;49.400;11.092;2023-11-19T13:22:11;1.00;;;0.90;;
3547;SDS011;1788;49.400;11.092;2023-11-19T13:24:38;2.13;;;1.20;;
3547;SDS011;1788;49.400;11.092;2023-11-19T13:27:05;2.00;;;1.00;;
3547;SDS011;1788;49.400;11.092;2023-11-19T13:29:32;3.03;;;1.10;;
3547;SDS011;1788;49.400;11.092;2023-11-19T13:31:59;0.90;;;0.80;;
3547;SDS011;1788;49.400;11.092;2023-11-19T13:34:26;0.97;;;0.87;;
3547;SDS011;1788;49.400;11.092;2023-11-19T13:36:53;2.07;;;1.37;;
3547;SDS011;1788;49.400;11.092;2023-11-19T13:39:20;2.97;;;1.20;;
3547;SDS011;1788;49.400;11.092;2023-11-19T13:41:47;2.23;;;1.33;;
3547;SDS011;1788;49.400;11.092;2023-11-19T13:44:14;1.00;;;0.63;;
3547;SDS011;1788;49.400;11.092;2023-11-19T13:46:40;1.70;;;1.00;;
3547;SDS011;1788;49.400;11.092;2023-11-19T13:49:07;2.40;;;1.13;;
3547;SDS011;1788;49.400;11.092;2023-11-19T13:51:35;1.60;;;1.23;;
3547;SDS011;1788;49.400;11.092;2023-11-19T13:54:01;0.90;;;0.80;;
3547;SDS011;1788;49.400;11.092;2023-11-19T13:56:28;1.60;;;0.83;;
3547;SDS011;1788;49.400;11.092;2023-11-19T13:58:55;1.17;;;0.90;;
3547;SDS011;1788;49.400;11.092;2023-11-19T14:01:22;1.60;;;1.30;;
3547;SDS011;1788;49.400;11.092;2023-11-19T14:03:49;0.97;;;0.87;;
3547;SDS011;1788;49.400;11.092;2023-11-19T14:06:16;1.40;;;0.60;;
3547;SDS011;1788;49.400;11.092;2023-11-19T14:08:43;1.20;;;1.10;;
3547;SDS011;1788;49.400;11.092;2023-11-19T14:11:09;1.07;;;1.00;;
3547;SDS011;1788;49.400;11.092;2023-11-19T14:13:36;1.03;;;0.93;;
3547;SDS011;1788;49.400;11.092;2023-11-19T14:16:03;1.33;;;0.90;;
3547;SDS011;1788;49.400;11.092;2023-11-19T14:18:32;1.63;;;1.00;;
3547;SDS011;1788;49.400;11.092;2023-11-19T14:20:57;1.80;;;1.00;;
3547;SDS011;1788;49.400;11.092;2023-11-19T14:23:24;0.83;;;0.70;;
3547;SDS011;1788;49.400;11.092;2023-11-19T14:25:52;1.23;;;0.77;;
3547;SDS011;1788;49.400;11.092;2023-11-19T14:28:19;3.83;;;0.80;;
3547;SDS011;1788;49.400;11.092;2023-11-19T14:30:46;2.23;;;1.20;;
3547;SDS011;1788;49.400;11.092;2023-11-19T14:33:13;1.20;;;0.87;;
3547;SDS011;1788;49.400;11.092;2023-11-19T14:35:39;0.80;;;0.70;;
3547;SDS011;1788;49.400;11.092;2023-11-19T14:38:06;2.33;;;1.33;;
3547;SDS011;1788;49.400;11.092;2023-11-19T14:40:33;2.77;;;1.20;;
3547;SDS011;1788;49.400;11.092;2023-11-19T14:43:00;2.30;;;1.27;;
3547;SDS011;1788;49.400;11.092;2023-11-19T14:45:27;1.33;;;1.23;;
3547;SDS011;1788;49.400;11.092;2023-11-19T14:47:53;1.40;;;1.30;;
3547;SDS011;1788;49.400;11.092;2023-11-19T14:50:20;1.13;;;0.93;;
3547;SDS011;1788;49.400;11.092;2023-11-19T14:52:47;1.17;;;1.10;;
3547;SDS011;1788;49.400;11.092;2023-11-19T14:55:14;1.33;;;1.10;;
3547;SDS011;1788;49.400;11.092;2023-11-19T14:57:41;2.27;;;1.43;;
3547;SDS011;1788;49.400;11.092;2023-11-19T15:00:07;1.13;;;1.07;;
3547;SDS011;1788;49.400;11.092;2023-11-19T15:02:34;1.70;;;1.50;;
3547;SDS011;1788;49.400;11.092;2023-11-19T15:05:01;0.93;;;0.83;;
3547;SDS011;1788;49.400;11.092;2023-11-19T15:07:28;2.33;;;1.07;;
3547;SDS011;1788;49.400;11.092;2023-11-19T15:09:55;1.77;;;1.17;;
3547;SDS011;1788;49.400;11.092;2023-11-19T15:12:22;2.47;;;2.23;;
3547;SDS011;1788;49.400;11.092;2023-11-19T15:14:49;2.07;;;1.60;;
3547;SDS011;1788;49.400;11.092;2023-11-19T15:17:16;10.73;;;5.10;;
3547;SDS011;1788;49.400;11.092;2023-11-19T15:19:42;1.73;;;1.63;;
3547;SDS011;1788;49.400;11.092;2023-11-19T15:22:09;2.43;;;2.07;;
3547;SDS011;1788;49.400;11.092;2023-11-19T15:24:36;1.80;;;1.30;;
3547;SDS011;1788;49.400;11.092;2023-11-19T15:27:03;1.73;;;0.90;;
3547;SDS011;1788;49.400;11.092;2023-11-19T15:29:30;2.63;;;2.03;;
3547;SDS011;1788;49.400;11.092;2023-11-19T15:31:57;2.03;;;1.00;;
3547;SDS011;1788;49.400;11.092;2023-11-19T15:34:24;2.30;;;1.60;;
3547;SDS011;1788;49.400;11.092;2023-11-19T15:36:50;1.97;;;1.53;;
3547;SDS011;1788;49.400;11.092;2023-11-19T15:39:17;1.80;;;1.20;;
3547;SDS011;1788;49.400;11.092;2023-11-19T15:41:44;3.63;;;2.00;;
3547;SDS011;1788;49.400;11.092;2023-11-19T15:44:12;3.33;;;1.90;;
3547;SDS011;1788;49.400;11.092;2023-11-19T15:46:40;1.27;;;1.20;;
3547;SDS011;1788;49.400;11.092;2023-11-19T15:49:06;2.50;;;1.27;;
3547;SDS011;1788;49.400;11.092;2023-11-19T15:51:33;1.83;;;1.40;;
3547;SDS011;1788;49.400;11.092;2023-11-19T15:54:00;1.93;;;1.83;;
3547;SDS011;1788;49.400;11.092;2023-11-19T15:56:26;3.30;;;1.40;;
3547;SDS011;1788;49.400;11.092;2023-11-19T15:58:53;1.70;;;1.60;;
3547;SDS011;1788;49.400;11.092;2023-11-19T16:01:20;1.30;;;1.20;;